sensor_id;sensor_type;location;lat;lon;timestamp;pressure;altitude;pressure_sealevel;temperature;humidity
64211;BME280;50528;48.514;14.394;2023-02-03T00:00:03;94608.45;;;0.89;85.89
64211;BME280;50528;48.514;14.394;2023-02-03T00:01:03;94609.95;;;0.88;85.99
64211;BME280;50528;48.514;14.394;2023-02-03T00:01:37;94608.44;;;0.85;85.89
64211;BME280;50528;48.514;14.394;2023-02-03T00:02:11;94610.64;;;0.87;85.97
64211;BME280;50528;48.514;14.394;2023-02-03T00:02:45;94609.80;;;0.86;85.91
64211;BME280;50528;48.514;14.394;2023-02-03T00:03:20;94605.68;;;0.88;85.96
64211;BME280;50528;48.514;14.394;2023-02-03T00:03:54;94604.89;;;0.88;85.70
64211;BME280;50528;48.514;14.394;2023-02-03T00:04:28;94606.65;;;0.87;85.95
64211;BME280;50528;48.514;14.394;2023-02-03T00:05:01;94607.23;;;0.85;85.89
64211;BME280;50528;48.514;14.394;2023-02-03T00:05:35;94606.30;;;0.85;85.95
64211;BME280;50528;48.514;14.394;2023-02-03T00:06:09;94607.48;;;0.89;85.74
64211;BME280;50528;48.514;14.394;2023-02-03T00:06:43;94609.52;;;0.89;86.03
64211;BME280;50528;48.514;14.394;2023-02-03T00:07:17;94605.59;;;0.87;85.86
64211;BME280;50528;48.514;14.394;2023-02-03T00:07:51;94604.81;;;0.86;85.68
64211;BME280;50528;48.514;14.394;2023-02-03T00:08:25;94601.09;;;0.85;85.89
64211;BME280;50528;48.514;14.394;2023-02-03T00:08:58;94600.80;;;0.86;85.80
64211;BME280;50528;48.514;14.394;2023-02-03T00:09:34;94604.55;;;0.85;85.94
64211;BME280;50528;48.514;14.394;2023-02-03T00:10:07;94605.05;;;0.86;85.81
64211;BME280;50528;48.514;14.394;2023-02-03T00:10:44;94605.52;;;0.84;85.73
64211;BME280;50528;48.514;14.394;2023-02-03T00:11:18;94606.33;;;0.85;85.93
64211;BME280;50528;48.514;14.394;2023-02-03T00:11:52;94602.58;;;0.88;85.83
64211;BME280;50528;48.514;14.394;2023-02-03T00:12:26;94604.73;;;0.88;85.92
64211;BME280;50528;48.514;14.394;2023-02-03T00:13:00;94604.15;;;0.89;85.70
64211;BME280;50528;48.514;14.394;2023-02-03T00:13:34;94600.48;;;0.86;85.98
64211;BME280;50528;48.514;14.394;2023-02-03T00:14:08;94605.88;;;0.86;85.82
64211;BME280;50528;48.514;14.394;2023-02-03T00:14:42;94608.24;;;0.87;85.92
64211;BME280;50528;48.514;14.394;2023-02-03T00:15:15;94602.61;;;0.86;86.03
64211;BME280;50528;48.514;14.394;2023-02-03T00:15:49;94606.91;;;0.88;86.02
64211;BME280;50528;48.514;14.394;2023-02-03T00:16:22;94604.17;;;0.89;85.70
64211;BME280;50528;48.514;14.394;2023-02-03T00:16:56;94605.45;;;0.88;85.76
64211;BME280;50528;48.514;14.394;2023-02-03T00:17:30;94602.15;;;0.89;85.89
64211;BME280;50528;48.514;14.394;2023-02-03T00:18:03;94600.98;;;0.88;85.82
64211;BME280;50528;48.514;14.394;2023-02-03T00:18:37;94600.08;;;0.88;85.80
64211;BME280;50528;48.514;14.394;2023-02-03T00:19:11;94601.39;;;0.89;85.82
64211;BME280;50528;48.514;14.394;2023-02-03T00:19:44;94600.08;;;0.88;85.85
64211;BME280;50528;48.514;14.394;2023-02-03T00:20:18;94597.53;;;0.88;85.87
64211;BME280;50528;48.514;14.394;2023-02-03T00:20:52;94594.10;;;0.88;85.91
64211;BME280;50528;48.514;14.394;2023-02-03T00:21:25;94594.17;;;0.90;85.83
64211;BME280;50528;48.514;14.394;2023-02-03T00:21:59;94593.23;;;0.93;85.82
64211;BME280;50528;48.514;14.394;2023-02-03T00:22:32;94591.59;;;0.92;85.58
64211;BME280;50528;48.514;14.394;2023-02-03T00:23:10;94588.38;;;0.91;85.87
64211;BME280;50528;48.514;14.394;2023-02-03T00:23:44;94589.00;;;0.93;85.76
64211;BME280;50528;48.514;14.394;2023-02-03T00:24:18;94590.53;;;0.95;85.77
64211;BME280;50528;48.514;14.394;2023-02-03T00:24:52;94588.02;;;0.99;85.51
64211;BME280;50528;48.514;14.394;2023-02-03T00:25:26;94588.63;;;0.95;85.64
64211;BME280;50528;48.514;14.394;2023-02-03T00:26:14;94587.67;;;0.93;85.67
64211;BME280;50528;48.514;14.394;2023-02-03T00:26:48;94587.64;;;0.93;85.58
64211;BME280;50528;48.514;14.394;2023-02-03T00:27:22;94585.76;;;0.95;85.59
64211;BME280;50528;48.514;14.394;2023-02-03T00:27:56;94583.54;;;0.93;85.51
64211;BME280;50528;48.514;14.394;2023-02-03T00:28:30;94587.19;;;0.91;85.84
64211;BME280;50528;48.514;14.394;2023-02-03T00:29:06;94588.02;;;0.91;85.64
64211;BME280;50528;48.514;14.394;2023-02-03T00:29:39;94584.30;;;0.91;85.59
64211;BME280;50528;48.514;14.394;2023-02-03T00:30:13;94585.09;;;0.91;85.91
64211;BME280;50528;48.514;14.394;2023-02-03T00:30:46;94586.73;;;0.93;85.58
64211;BME280;50528;48.514;14.394;2023-02-03T00:31:22;94586.05;;;0.94;85.62
64211;BME280;50528;48.514;14.394;2023-02-03T00:31:56;94582.88;;;0.94;85.48
64211;BME280;50528;48.514;14.394;2023-02-03T00:32:31;94584.83;;;0.92;85.44
64211;BME280;50528;48.514;14.394;2023-02-03T00:33:05;94586.26;;;0.92;85.35
64211;BME280;50528;48.514;14.394;2023-02-03T00:33:38;94585.66;;;0.91;85.39
64211;BME280;50528;48.514;14.394;2023-02-03T00:34:12;94589.52;;;0.90;85.53
64211;BME280;50528;48.514;14.394;2023-02-03T00:34:45;94585.08;;;0.91;85.35
64211;BME280;50528;48.514;14.394;2023-02-03T00:35:19;94588.25;;;0.91;85.50
64211;BME280;50528;48.514;14.394;2023-02-03T00:35:52;94589.23;;;0.97;85.05
64211;BME280;50528;48.514;14.394;2023-02-03T00:36:26;94587.23;;;1.07;84.71
64211;BME280;50528;48.514;14.394;2023-02-03T00:37:00;94585.04;;;0.99;84.57
64211;BME280;50528;48.514;14.394;2023-02-03T00:37:34;94590.78;;;0.93;84.84
64211;BME280;50528;48.514;14.394;2023-02-03T00:38:07;94587.25;;;0.90;85.05
64211;BME280;50528;48.514;14.394;2023-02-03T00:38:41;94587.39;;;0.89;85.19
64211;BME280;50528;48.514;14.394;2023-02-03T00:39:15;94590.80;;;0.88;85.21
64211;BME280;50528;48.514;14.394;2023-02-03T00:39:51;94590.01;;;0.89;85.42
64211;BME280;50528;48.514;14.394;2023-02-03T00:40:25;94590.29;;;0.93;85.34
64211;BME280;50528;48.514;14.394;2023-02-03T00:41:00;94592.39;;;0.94;85.02
64211;BME280;50528;48.514;14.394;2023-02-03T00:41:33;94591.64;;;0.93;85.17
64211;BME280;50528;48.514;14.394;2023-02-03T00:42:07;94590.92;;;0.88;85.27
64211;BME280;50528;48.514;14.394;2023-02-03T00:42:40;94589.94;;;0.87;85.31
64211;BME280;50528;48.514;14.394;2023-02-03T00:43:14;94593.11;;;0.89;85.34
64211;BME280;50528;48.514;14.394;2023-02-03T00:43:48;94590.65;;;0.89;85.33
64211;BME280;50528;48.514;14.394;2023-02-03T00:44:22;94587.98;;;0.88;85.58
64211;BME280;50528;48.514;14.394;2023-02-03T00:44:56;94593.89;;;0.90;85.31
64211;BME280;50528;48.514;14.394;2023-02-03T00:45:29;94589.71;;;0.92;85.26
64211;BME280;50528;48.514;14.394;2023-02-03T00:46:03;94589.39;;;0.90;85.18
64211;BME280;50528;48.514;14.394;2023-02-03T00:46:37;94591.36;;;0.89;85.35
64211;BME280;50528;48.514;14.394;2023-02-03T00:47:11;94588.49;;;0.89;85.26
64211;BME280;50528;48.514;14.394;2023-02-03T00:47:44;94586.48;;;0.90;85.70
64211;BME280;50528;48.514;14.394;2023-02-03T00:48:18;94585.98;;;0.89;85.26
64211;BME280;50528;48.514;14.394;2023-02-03T00:48:52;94589.06;;;0.90;85.46
64211;BME280;50528;48.514;14.394;2023-02-03T00:49:26;94586.77;;;0.90;85.54
64211;BME280;50528;48.514;14.394;2023-02-03T00:50:00;94584.89;;;0.90;85.24
64211;BME280;50528;48.514;14.394;2023-02-03T00:50:34;94590.45;;;0.91;85.38
64211;BME280;50528;48.514;14.394;2023-02-03T00:51:07;94588.87;;;0.92;85.51
64211;BME280;50528;48.514;14.394;2023-02-03T00:51:41;94589.90;;;0.91;85.46
64211;BME280;50528;48.514;14.394;2023-02-03T00:52:15;94591.48;;;0.93;85.45
64211;BME280;50528;48.514;14.394;2023-02-03T00:52:48;94589.77;;;0.94;85.43
64211;BME280;50528;48.514;14.394;2023-02-03T00:53:40;94588.84;;;0.96;85.31
64211;BME280;50528;48.514;14.394;2023-02-03T00:54:25;94588.16;;;0.93;85.19
64211;BME280;50528;48.514;14.394;2023-02-03T00:55:43;94588.60;;;0.91;85.26
64211;BME280;50528;48.514;14.394;2023-02-03T00:56:16;94587.58;;;0.91;85.39
64211;BME280;50528;48.514;14.394;2023-02-03T00:56:50;94589.29;;;0.91;85.20
64211;BME280;50528;48.514;14.394;2023-02-03T00:57:24;94587.67;;;0.90;85.32
64211;BME280;50528;48.514;14.394;2023-02-03T00:57:57;94580.34;;;0.90;85.36
64211;BME280;50528;48.514;14.394;2023-02-03T00:58:31;94581.47;;;0.90;85.02
64211;BME280;50528;48.514;14.394;2023-02-03T00:59:05;94583.55;;;0.88;85.06
64211;BME280;50528;48.514;14.394;2023-02-03T00:59:39;94578.29;;;0.86;85.32
64211;BME280;50528;48.514;14.394;2023-02-03T01:00:14;94578.09;;;0.86;85.34
64211;BME280;50528;48.514;14.394;2023-02-03T01:00:48;94582.71;;;0.86;85.36
64211;BME280;50528;48.514;14.394;2023-02-03T01:01:23;94581.20;;;0.86;85.27
64211;BME280;50528;48.514;14.394;2023-02-03T01:01:57;94581.27;;;0.87;85.53
64211;BME280;50528;48.514;14.394;2023-02-03T01:02:30;94580.81;;;0.89;85.17
64211;BME280;50528;48.514;14.394;2023-02-03T01:03:04;94578.64;;;0.90;85.28
64211;BME280;50528;48.514;14.394;2023-02-03T01:03:38;94577.13;;;0.90;85.54
64211;BME280;50528;48.514;14.394;2023-02-03T01:04:11;94576.28;;;0.91;85.30
64211;BME280;50528;48.514;14.394;2023-02-03T01:04:45;94577.67;;;0.93;85.52
64211;BME280;50528;48.514;14.394;2023-02-03T01:05:19;94576.70;;;0.94;85.38
64211;BME280;50528;48.514;14.394;2023-02-03T01:05:52;94576.24;;;0.95;85.23
64211;BME280;50528;48.514;14.394;2023-02-03T01:06:26;94574.48;;;0.94;85.08
64211;BME280;50528;48.514;14.394;2023-02-03T01:07:00;94569.25;;;0.94;85.17
64211;BME280;50528;48.514;14.394;2023-02-03T01:07:34;94572.18;;;0.95;85.30
64211;BME280;50528;48.514;14.394;2023-02-03T01:08:09;94573.70;;;0.97;85.17
64211;BME280;50528;48.514;14.394;2023-02-03T01:08:47;94569.02;;;0.99;85.21
64211;BME280;50528;48.514;14.394;2023-02-03T01:09:21;94571.14;;;0.97;84.96
64211;BME280;50528;48.514;14.394;2023-02-03T01:09:54;94562.08;;;0.92;85.20
64211;BME280;50528;48.514;14.394;2023-02-03T01:10:29;94571.89;;;0.95;85.33
64211;BME280;50528;48.514;14.394;2023-02-03T01:11:10;94570.83;;;0.95;85.37
64211;BME280;50528;48.514;14.394;2023-02-03T01:11:47;94570.70;;;0.95;85.17
64211;BME280;50528;48.514;14.394;2023-02-03T01:12:20;94571.44;;;0.96;85.08
64211;BME280;50528;48.514;14.394;2023-02-03T01:12:54;94569.46;;;0.97;85.16
64211;BME280;50528;48.514;14.394;2023-02-03T01:13:28;94566.97;;;0.97;85.17
64211;BME280;50528;48.514;14.394;2023-02-03T01:14:01;94568.13;;;0.99;85.25
64211;BME280;50528;48.514;14.394;2023-02-03T01:14:35;94564.86;;;1.02;84.70
64211;BME280;50528;48.514;14.394;2023-02-03T01:15:09;94564.02;;;1.02;84.97
64211;BME280;50528;48.514;14.394;2023-02-03T01:15:46;94564.95;;;1.00;85.06
64211;BME280;50528;48.514;14.394;2023-02-03T01:16:22;94567.48;;;0.99;84.83
64211;BME280;50528;48.514;14.394;2023-02-03T01:16:56;94560.40;;;0.99;84.65
64211;BME280;50528;48.514;14.394;2023-02-03T01:17:30;94560.63;;;0.97;84.77
64211;BME280;50528;48.514;14.394;2023-02-03T01:18:04;94550.77;;;1.00;84.88
64211;BME280;50528;48.514;14.394;2023-02-03T01:18:38;94553.13;;;1.07;84.81
64211;BME280;50528;48.514;14.394;2023-02-03T01:19:12;94544.41;;;1.03;84.42
64211;BME280;50528;48.514;14.394;2023-02-03T01:19:46;94547.22;;;0.99;84.40
64211;BME280;50528;48.514;14.394;2023-02-03T01:20:21;94550.52;;;0.99;84.57
64211;BME280;50528;48.514;14.394;2023-02-03T01:20:56;94541.92;;;1.02;84.44
64211;BME280;50528;48.514;14.394;2023-02-03T01:21:31;94532.13;;;0.93;84.51
64211;BME280;50528;48.514;14.394;2023-02-03T01:22:04;94536.30;;;0.99;84.55
64211;BME280;50528;48.514;14.394;2023-02-03T01:22:38;94535.42;;;0.99;84.62
64211;BME280;50528;48.514;14.394;2023-02-03T01:23:12;94534.58;;;1.00;84.61
64211;BME280;50528;48.514;14.394;2023-02-03T01:23:46;94536.51;;;1.10;84.15
64211;BME280;50528;48.514;14.394;2023-02-03T01:24:20;94529.73;;;1.12;83.96
64211;BME280;50528;48.514;14.394;2023-02-03T01:24:53;94537.95;;;1.08;83.72
64211;BME280;50528;48.514;14.394;2023-02-03T01:25:27;94538.88;;;1.02;84.17
64211;BME280;50528;48.514;14.394;2023-02-03T01:26:05;94538.29;;;1.04;84.34
64211;BME280;50528;48.514;14.394;2023-02-03T01:26:40;94538.77;;;1.00;84.33
64211;BME280;50528;48.514;14.394;2023-02-03T01:27:13;94539.04;;;0.94;84.35
64211;BME280;50528;48.514;14.394;2023-02-03T01:27:47;94540.19;;;0.92;84.34
64211;BME280;50528;48.514;14.394;2023-02-03T01:28:21;94537.86;;;0.92;84.74
64211;BME280;50528;48.514;14.394;2023-02-03T01:28:58;94548.45;;;0.95;84.59
64211;BME280;50528;48.514;14.394;2023-02-03T01:29:32;94537.85;;;0.97;84.17
64211;BME280;50528;48.514;14.394;2023-02-03T01:30:06;94541.90;;;0.96;84.21
64211;BME280;50528;48.514;14.394;2023-02-03T01:30:40;94541.92;;;0.95;84.12
64211;BME280;50528;48.514;14.394;2023-02-03T01:31:17;94542.52;;;0.93;84.33
64211;BME280;50528;48.514;14.394;2023-02-03T01:31:51;94543.33;;;0.91;84.52
64211;BME280;50528;48.514;14.394;2023-02-03T01:32:25;94545.16;;;0.90;84.50
64211;BME280;50528;48.514;14.394;2023-02-03T01:32:59;94545.36;;;0.90;84.55
64211;BME280;50528;48.514;14.394;2023-02-03T01:33:33;94543.55;;;0.91;84.48
64211;BME280;50528;48.514;14.394;2023-02-03T01:34:12;94542.88;;;0.89;84.83
64211;BME280;50528;48.514;14.394;2023-02-03T01:34:48;94545.29;;;0.88;84.75
64211;BME280;50528;48.514;14.394;2023-02-03T01:35:22;94549.79;;;0.89;84.69
64211;BME280;50528;48.514;14.394;2023-02-03T01:35:59;94541.62;;;0.88;84.89
64211;BME280;50528;48.514;14.394;2023-02-03T01:36:34;94528.65;;;0.78;84.90
64211;BME280;50528;48.514;14.394;2023-02-03T01:37:10;94547.55;;;0.90;84.99
64211;BME280;50528;48.514;14.394;2023-02-03T01:37:43;94538.23;;;0.91;84.78
64211;BME280;50528;48.514;14.394;2023-02-03T01:38:17;94543.77;;;0.90;84.91
64211;BME280;50528;48.514;14.394;2023-02-03T01:38:51;94544.59;;;0.91;84.87
64211;BME280;50528;48.514;14.394;2023-02-03T01:39:26;94539.03;;;0.96;85.03
64211;BME280;50528;48.514;14.394;2023-02-03T01:40:00;94539.75;;;1.05;84.63
64211;BME280;50528;48.514;14.394;2023-02-03T01:40:33;94536.14;;;0.99;84.76
64211;BME280;50528;48.514;14.394;2023-02-03T01:41:10;94539.60;;;0.97;84.87
64211;BME280;50528;48.514;14.394;2023-02-03T01:41:45;94537.15;;;0.94;84.89
64211;BME280;50528;48.514;14.394;2023-02-03T01:42:18;94540.13;;;0.94;84.76
64211;BME280;50528;48.514;14.394;2023-02-03T01:42:52;94540.12;;;0.97;84.61
64211;BME280;50528;48.514;14.394;2023-02-03T01:43:40;94534.88;;;0.96;84.80
64211;BME280;50528;48.514;14.394;2023-02-03T01:44:45;94542.66;;;0.96;84.67
64211;BME280;50528;48.514;14.394;2023-02-03T01:45:25;94540.52;;;0.91;84.95
64211;BME280;50528;48.514;14.394;2023-02-03T01:46:02;94537.11;;;0.98;84.55
64211;BME280;50528;48.514;14.394;2023-02-03T01:46:45;94534.16;;;0.93;84.61
64211;BME280;50528;48.514;14.394;2023-02-03T01:47:34;94537.88;;;0.88;84.62
64211;BME280;50528;48.514;14.394;2023-02-03T01:48:08;94539.58;;;0.87;84.95
64211;BME280;50528;48.514;14.394;2023-02-03T01:48:42;94540.51;;;0.87;84.60
64211;BME280;50528;48.514;14.394;2023-02-03T01:49:25;94537.20;;;0.86;84.87
64211;BME280;50528;48.514;14.394;2023-02-03T01:50:39;94539.93;;;0.89;84.74
64211;BME280;50528;48.514;14.394;2023-02-03T01:51:13;94543.16;;;0.85;84.93
64211;BME280;50528;48.514;14.394;2023-02-03T01:51:47;94542.16;;;0.85;84.80
64211;BME280;50528;48.514;14.394;2023-02-03T01:52:21;94542.13;;;0.80;84.86
64211;BME280;50528;48.514;14.394;2023-02-03T01:53:00;94544.85;;;0.79;84.83
64211;BME280;50528;48.514;14.394;2023-02-03T01:53:35;94544.80;;;0.83;84.97
64211;BME280;50528;48.514;14.394;2023-02-03T01:54:13;94545.06;;;0.85;84.78
64211;BME280;50528;48.514;14.394;2023-02-03T01:54:51;94544.04;;;0.79;84.87
64211;BME280;50528;48.514;14.394;2023-02-03T01:55:38;94537.06;;;0.76;85.07
64211;BME280;50528;48.514;14.394;2023-02-03T01:56:13;94538.11;;;0.75;85.22
64211;BME280;50528;48.514;14.394;2023-02-03T01:56:53;94538.18;;;0.74;85.22
64211;BME280;50528;48.514;14.394;2023-02-03T01:57:33;94538.65;;;0.76;85.48
64211;BME280;50528;48.514;14.394;2023-02-03T01:58:30;94539.15;;;0.79;85.33
64211;BME280;50528;48.514;14.394;2023-02-03T01:59:04;94535.51;;;0.76;85.48
64211;BME280;50528;48.514;14.394;2023-02-03T01:59:39;94535.02;;;0.81;85.17
64211;BME280;50528;48.514;14.394;2023-02-03T02:00:13;94537.77;;;0.86;85.03
64211;BME280;50528;48.514;14.394;2023-02-03T02:00:48;94532.89;;;0.83;85.17
64211;BME280;50528;48.514;14.394;2023-02-03T02:02:12;94532.13;;;0.76;85.09
64211;BME280;50528;48.514;14.394;2023-02-03T02:02:47;94528.58;;;0.73;85.27
64211;BME280;50528;48.514;14.394;2023-02-03T02:03:26;94529.00;;;0.73;85.67
64211;BME280;50528;48.514;14.394;2023-02-03T02:04:02;94526.98;;;0.80;85.23
64211;BME280;50528;48.514;14.394;2023-02-03T02:05:01;94524.66;;;0.79;85.14
64211;BME280;50528;48.514;14.394;2023-02-03T02:06:13;94515.77;;;0.71;85.55
64211;BME280;50528;48.514;14.394;2023-02-03T02:06:47;94514.70;;;0.71;85.76
64211;BME280;50528;48.514;14.394;2023-02-03T02:07:23;94516.02;;;0.73;85.43
64211;BME280;50528;48.514;14.394;2023-02-03T02:07:59;94511.45;;;0.83;85.30
64211;BME280;50528;48.514;14.394;2023-02-03T02:08:35;94512.23;;;0.79;85.58
64211;BME280;50528;48.514;14.394;2023-02-03T02:09:09;94515.24;;;0.80;85.22
64211;BME280;50528;48.514;14.394;2023-02-03T02:09:43;94511.83;;;0.83;85.32
64211;BME280;50528;48.514;14.394;2023-02-03T02:10:20;94505.89;;;0.82;85.37
64211;BME280;50528;48.514;14.394;2023-02-03T02:10:53;94506.48;;;0.81;85.40
64211;BME280;50528;48.514;14.394;2023-02-03T02:11:27;94504.55;;;0.80;85.60
64211;BME280;50528;48.514;14.394;2023-02-03T02:12:01;94502.56;;;0.81;85.60
64211;BME280;50528;48.514;14.394;2023-02-03T02:12:34;94501.17;;;0.81;85.60
64211;BME280;50528;48.514;14.394;2023-02-03T02:13:08;94505.71;;;0.81;85.54
64211;BME280;50528;48.514;14.394;2023-02-03T02:13:42;94503.60;;;0.81;85.73
64211;BME280;50528;48.514;14.394;2023-02-03T02:14:17;94507.06;;;0.84;85.73
64211;BME280;50528;48.514;14.394;2023-02-03T02:14:50;94503.79;;;0.82;85.57
64211;BME280;50528;48.514;14.394;2023-02-03T02:17:15;94497.33;;;0.91;85.51
64211;BME280;50528;48.514;14.394;2023-02-03T02:18:06;94498.33;;;0.82;85.62
64211;BME280;50528;48.514;14.394;2023-02-03T02:18:57;94492.73;;;0.81;85.74
64211;BME280;50528;48.514;14.394;2023-02-03T02:26:36;94476.17;;;0.75;86.22
64211;BME280;50528;48.514;14.394;2023-02-03T02:30:35;94465.32;;;0.67;86.12
64211;BME280;50528;48.514;14.394;2023-02-03T02:32:19;94472.70;;;0.78;85.91
64211;BME280;50528;48.514;14.394;2023-02-03T02:33:54;94473.19;;;0.72;86.01
64211;BME280;50528;48.514;14.394;2023-02-03T02:37:17;94475.30;;;0.81;86.23
64211;BME280;50528;48.514;14.394;2023-02-03T02:39:09;94471.40;;;0.74;86.06
64211;BME280;50528;48.514;14.394;2023-02-03T02:39:44;94476.34;;;0.69;86.48
64211;BME280;50528;48.514;14.394;2023-02-03T02:40:34;94471.15;;;0.69;86.57
64211;BME280;50528;48.514;14.394;2023-02-03T02:42:29;94467.89;;;0.66;86.81
64211;BME280;50528;48.514;14.394;2023-02-03T02:43:22;94464.98;;;0.65;86.71
64211;BME280;50528;48.514;14.394;2023-02-03T02:44:06;94463.50;;;0.65;86.75
64211;BME280;50528;48.514;14.394;2023-02-03T02:44:48;94466.52;;;0.69;86.87
64211;BME280;50528;48.514;14.394;2023-02-03T02:45:28;94463.09;;;0.73;86.86
64211;BME280;50528;48.514;14.394;2023-02-03T02:46:12;94464.16;;;0.71;86.68
64211;BME280;50528;48.514;14.394;2023-02-03T02:46:56;94465.37;;;0.80;86.57
64211;BME280;50528;48.514;14.394;2023-02-03T02:47:31;94464.95;;;0.76;86.78
64211;BME280;50528;48.514;14.394;2023-02-03T02:48:09;94457.14;;;0.74;86.83
64211;BME280;50528;48.514;14.394;2023-02-03T02:48:54;94461.86;;;0.75;86.71
64211;BME280;50528;48.514;14.394;2023-02-03T02:50:43;94460.64;;;0.75;87.05
64211;BME280;50528;48.514;14.394;2023-02-03T02:51:19;94461.40;;;0.70;86.97
64211;BME280;50528;48.514;14.394;2023-02-03T02:51:56;94463.65;;;0.71;86.96
64211;BME280;50528;48.514;14.394;2023-02-03T02:52:35;94459.98;;;0.73;87.31
64211;BME280;50528;48.514;14.394;2023-02-03T02:53:10;94459.53;;;0.74;87.22
64211;BME280;50528;48.514;14.394;2023-02-03T02:53:50;94459.91;;;0.75;86.98
64211;BME280;50528;48.514;14.394;2023-02-03T02:54:28;94462.05;;;0.75;87.21
64211;BME280;50528;48.514;14.394;2023-02-03T02:55:27;94457.05;;;0.76;87.05
64211;BME280;50528;48.514;14.394;2023-02-03T02:56:06;94460.20;;;0.76;87.32
64211;BME280;50528;48.514;14.394;2023-02-03T02:56:44;94459.24;;;0.77;87.29
64211;BME280;50528;48.514;14.394;2023-02-03T02:57:22;94455.77;;;0.78;87.32
64211;BME280;50528;48.514;14.394;2023-02-03T02:58:05;94455.09;;;0.79;87.20
64211;BME280;50528;48.514;14.394;2023-02-03T02:58:40;94449.27;;;0.81;87.35
64211;BME280;50528;48.514;14.394;2023-02-03T02:59:15;94448.34;;;0.78;87.45
64211;BME280;50528;48.514;14.394;2023-02-03T02:59:49;94448.82;;;0.79;87.31
64211;BME280;50528;48.514;14.394;2023-02-03T03:00:22;94451.88;;;0.80;87.30
64211;BME280;50528;48.514;14.394;2023-02-03T03:00:57;94448.76;;;0.84;87.46
64211;BME280;50528;48.514;14.394;2023-02-03T03:01:30;94444.31;;;0.99;87.32
64211;BME280;50528;48.514;14.394;2023-02-03T03:02:03;94445.41;;;0.97;87.13
64211;BME280;50528;48.514;14.394;2023-02-03T03:02:38;94446.34;;;0.93;87.39
64211;BME280;50528;48.514;14.394;2023-02-03T03:03:19;94444.43;;;0.92;87.41
64211;BME280;50528;48.514;14.394;2023-02-03T03:03:53;94441.84;;;0.92;87.23
64211;BME280;50528;48.514;14.394;2023-02-03T03:04:29;94444.50;;;0.93;87.66
64211;BME280;50528;48.514;14.394;2023-02-03T03:05:07;94444.64;;;0.97;87.62
64211;BME280;50528;48.514;14.394;2023-02-03T03:05:51;94440.73;;;0.97;87.46
64211;BME280;50528;48.514;14.394;2023-02-03T03:06:31;94436.30;;;0.98;87.17
64211;BME280;50528;48.514;14.394;2023-02-03T03:07:16;94441.87;;;0.97;87.45
64211;BME280;50528;48.514;14.394;2023-02-03T03:07:58;94437.73;;;0.96;87.56
64211;BME280;50528;48.514;14.394;2023-02-03T03:08:52;94433.34;;;0.99;87.41
64211;BME280;50528;48.514;14.394;2023-02-03T03:09:33;94433.02;;;0.99;87.59
64211;BME280;50528;48.514;14.394;2023-02-03T03:10:10;94431.30;;;0.99;87.58
64211;BME280;50528;48.514;14.394;2023-02-03T03:10:46;94435.52;;;1.03;87.45
64211;BME280;50528;48.514;14.394;2023-02-03T03:11:19;94429.88;;;1.04;87.33
64211;BME280;50528;48.514;14.394;2023-02-03T03:11:57;94430.23;;;1.04;87.40
64211;BME280;50528;48.514;14.394;2023-02-03T03:12:39;94431.86;;;1.05;87.39
64211;BME280;50528;48.514;14.394;2023-02-03T03:13:21;94431.41;;;1.03;87.71
64211;BME280;50528;48.514;14.394;2023-02-03T03:13:58;94429.85;;;1.03;87.71
64211;BME280;50528;48.514;14.394;2023-02-03T03:14:32;94424.13;;;1.03;87.79
64211;BME280;50528;48.514;14.394;2023-02-03T03:15:16;94428.23;;;1.02;87.82
64211;BME280;50528;48.514;14.394;2023-02-03T03:15:53;94422.46;;;1.06;87.75
64211;BME280;50528;48.514;14.394;2023-02-03T03:16:29;94424.95;;;1.10;87.63
64211;BME280;50528;48.514;14.394;2023-02-03T03:17:39;94424.41;;;1.07;87.53
64211;BME280;50528;48.514;14.394;2023-02-03T03:18:33;94425.69;;;1.06;87.75
64211;BME280;50528;48.514;14.394;2023-02-03T03:19:12;94422.59;;;1.05;87.71
64211;BME280;50528;48.514;14.394;2023-02-03T03:19:54;94422.55;;;1.07;87.96
64211;BME280;50528;48.514;14.394;2023-02-03T03:20:29;94427.44;;;1.09;87.69
64211;BME280;50528;48.514;14.394;2023-02-03T03:21:05;94423.08;;;1.08;87.67
64211;BME280;50528;48.514;14.394;2023-02-03T03:21:47;94424.58;;;1.11;87.74
64211;BME280;50528;48.514;14.394;2023-02-03T03:22:29;94423.84;;;1.15;87.67
64211;BME280;50528;48.514;14.394;2023-02-03T03:23:05;94423.68;;;1.13;87.79
64211;BME280;50528;48.514;14.394;2023-02-03T03:23:41;94424.02;;;1.07;87.58
64211;BME280;50528;48.514;14.394;2023-02-03T03:24:21;94423.49;;;1.10;88.18
64211;BME280;50528;48.514;14.394;2023-02-03T03:25:02;94425.72;;;1.10;87.99
64211;BME280;50528;48.514;14.394;2023-02-03T03:25:40;94425.22;;;1.12;88.03
64211;BME280;50528;48.514;14.394;2023-02-03T03:26:30;94422.40;;;1.08;88.08
64211;BME280;50528;48.514;14.394;2023-02-03T03:27:08;94426.25;;;1.07;88.51
64211;BME280;50528;48.514;14.394;2023-02-03T03:27:50;94421.08;;;1.09;88.36
64211;BME280;50528;48.514;14.394;2023-02-03T03:28:32;94424.50;;;1.12;88.50
64211;BME280;50528;48.514;14.394;2023-02-03T03:29:13;94413.85;;;1.10;88.47
64211;BME280;50528;48.514;14.394;2023-02-03T03:30:34;94416.94;;;1.16;88.41
64211;BME280;50528;48.514;14.394;2023-02-03T03:31:10;94423.02;;;1.16;88.41
64211;BME280;50528;48.514;14.394;2023-02-03T03:31:44;94420.58;;;1.15;88.39
64211;BME280;50528;48.514;14.394;2023-02-03T03:32:18;94419.17;;;1.17;88.44
64211;BME280;50528;48.514;14.394;2023-02-03T03:32:52;94422.21;;;1.26;88.02
64211;BME280;50528;48.514;14.394;2023-02-03T03:33:26;94423.19;;;1.22;88.36
64211;BME280;50528;48.514;14.394;2023-02-03T03:33:59;94418.78;;;1.23;88.30
64211;BME280;50528;48.514;14.394;2023-02-03T03:34:34;94421.63;;;1.27;88.56
64211;BME280;50528;48.514;14.394;2023-02-03T03:35:08;94423.64;;;1.25;88.27
64211;BME280;50528;48.514;14.394;2023-02-03T03:35:52;94423.05;;;1.23;88.51
64211;BME280;50528;48.514;14.394;2023-02-03T03:36:35;94422.14;;;1.23;88.69
64211;BME280;50528;48.514;14.394;2023-02-03T03:37:35;94422.30;;;1.22;88.62
64211;BME280;50528;48.514;14.394;2023-02-03T03:38:59;94424.56;;;1.23;88.53